Kitts Hill, Ohio
Current Conditions -  °F | °C
As of 3:55 AM on Saturday 29 Nov 2014 (Local Time) from KDWU Reporting Station
Overcast Overcast  
Wind Chill: 34°   Ceiling: 7000
Heat Index: 34°   Visibility: 10mi
Dew Point: 19°   Wind: 3mph
Humidity: 56%   Direction: 120°ESE
Pressure: 30.14"   Gusts: NA
Location:  38.56°N, 82.58°W
Report Text: KDWU 290855Z AUTO 12003KT 10SM OVC070 01/M07 A3014 RMK AO1 52003
Loading
Personal Weather Stations






























Interactive Weather Map New forecast layout! Learn more

10-Day Weather Forecast

Advertisements
Track Severe Weather on mobile